Time;durP1;ratioP1;P1;durP2;ratioP2;P2;SDS_P1;SDS_P2;PMS_P1;PMS_P2;Temp;Humidity;BMP_temperature;BMP_pressure;BME280_temperature;BME280_humidity;BME280_pressure;Samples;Min_cycle;Max_cycle;Signal;HPM_P1;HPM_P2
2022/11/24 00:01:42;;;;;;;72.35;11.25;;;11.10;95.60;;;;;;5107307;28;20035;-59
2022/11/24 00:04:10;;;;;;;45.05;9.85;;;11.10;95.60;;;;;;5107385;28;20028;-59
2022/11/24 00:06:35;;;;;;;69.57;10.00;;;11.10;95.50;;;;;;5107332;28;20055;-59
2022/11/24 00:09:02;;;;;;;72.80;11.25;;;11.10;95.50;;;;;;5125724;28;20020;-59
2022/11/24 00:11:28;;;;;;;55.25;9.68;;;11.00;95.50;;;;;;5106869;28;20027;-59
2022/11/24 00:13:54;;;;;;;53.50;10.15;;;11.00;95.60;;;;;;5107136;28;20096;-59
2022/11/24 00:16:28;;;;;;;53.17;10.00;;;11.00;95.60;;;;;;5106972;28;20068;-59
2022/11/24 00:18:54;;;;;;;49.35;9.40;;;11.00;95.50;;;;;;5125317;28;20038;-58
2022/11/24 00:21:20;;;;;;;59.63;8.68;;;11.00;95.50;;;;;;5107084;28;20038;-58
2022/11/24 00:23:46;;;;;;;48.58;8.68;;;11.00;95.50;;;;;;5106905;28;20027;-58
2022/11/24 00:26:13;;;;;;;35.78;8.18;;;11.00;95.50;;;;;;5090264;28;20031;-59
2022/11/24 00:28:39;;;;;;;41.00;8.23;;;11.00;95.40;;;;;;5107081;28;20049;-59
2022/11/24 00:31:13;;;;;;;30.33;7.63;;;11.00;95.40;;;;;;5126625;28;20118;-59
2022/11/24 00:33:38;;;;;;;40.17;7.28;;;10.90;95.40;;;;;;5094794;28;20024;-59
2022/11/24 00:36:04;;;;;;;47.05;8.38;;;10.90;95.40;;;;;;5093606;28;20034;-59
2022/11/24 00:38:30;;;;;;;44.28;8.57;;;10.90;95.40;;;;;;5129064;28;20039;-59
2022/11/24 00:40:55;;;;;;;44.65;7.78;;;10.90;95.40;;;;;;5128748;28;20043;-58
2022/11/24 00:43:21;;;;;;;39.30;7.35;;;10.90;95.50;;;;;;5110652;28;20120;-58
2022/11/24 00:45:46;;;;;;;41.58;7.60;;;10.80;95.50;;;;;;5110518;28;20047;-58
2022/11/24 00:48:12;;;;;;;44.65;8.55;;;10.80;95.50;;;;;;5110575;28;20039;-58
2022/11/24 00:50:37;;;;;;;36.33;7.93;;;10.80;95.50;;;;;;5110375;28;20036;-58
2022/11/24 00:53:03;;;;;;;43.67;7.30;;;10.80;95.50;;;;;;5110087;28;20034;-59
2022/11/24 00:55:28;;;;;;;30.65;6.78;;;10.80;95.50;;;;;;5128576;28;20103;-58
2022/11/24 00:57:54;;;;;;;32.28;6.35;;;10.90;95.50;;;;;;5128963;28;20020;-59
2022/11/24 01:00:20;;;;;;;38.17;6.82;;;10.80;95.50;;;;;;5128627;28;20020;-59
2022/11/24 01:02:46;;;;;;;28.10;6.57;;;10.80;95.60;;;;;;5110250;28;20051;-58
2022/11/24 01:05:11;;;;;;;31.80;6.32;;;10.80;95.60;;;;;;5110352;28;20020;-59
2022/11/24 01:07:37;;;;;;;28.50;6.57;;;10.80;95.60;;;;;;5128424;28;20176;-58
2022/11/24 01:10:02;;;;;;;25.40;5.50;;;10.80;95.60;;;;;;5109824;28;20047;-59
2022/11/24 01:12:28;;;;;;;30.55;6.38;;;10.80;95.60;;;;;;5109411;28;20047;-58
2022/11/24 01:14:53;;;;;;;33.45;6.78;;;10.70;95.60;;;;;;5128104;28;20182;-59
2022/11/24 01:17:19;;;;;;;27.05;5.95;;;10.70;95.60;;;;;;5109466;28;20157;-59
2022/11/24 01:19:48;;;;;;;30.13;5.57;;;10.70;95.70;;;;;;5128005;28;20134;-58
2022/11/24 01:22:13;;;;;;;26.27;6.07;;;10.70;95.80;;;;;;5109796;28;20031;-58
2022/11/24 01:24:39;;;;;;;29.50;5.93;;;10.70;95.80;;;;;;5109290;28;20082;-58
2022/11/24 01:27:05;;;;;;;23.20;5.38;;;10.70;95.90;;;;;;5127967;28;20027;-58
2022/11/24 01:29:30;;;;;;;18.55;4.90;;;10.70;95.80;;;;;;5109203;28;20031;-59
2022/11/24 01:31:56;;;;;;;24.00;4.90;;;10.60;95.90;;;;;;5109395;28;20054;-59
2022/11/24 01:34:21;;;;;;;23.65;4.57;;;10.60;95.90;;;;;;5127839;28;20080;-59
2022/11/24 01:36:47;;;;;;;26.40;4.55;;;10.60;95.90;;;;;;5127883;28;20056;-59
2022/11/24 01:39:13;;;;;;;13.55;4.05;;;10.60;95.90;;;;;;5127838;28;20519;-59
2022/11/24 01:41:38;;;;;;;19.15;4.35;;;10.60;95.90;;;;;;5108415;28;20035;-58
2022/11/24 01:44:27;;;;;;;14.48;4.40;;;10.60;96.00;;;;;;5092207;28;20023;-59
2022/11/24 01:47:20;;;;;;;18.10;4.53;;;10.50;95.90;;;;;;5109205;28;20092;-59
2022/11/24 01:49:47;;;;;;;12.63;4.32;;;10.50;96.00;;;;;;5108922;28;20016;-59
2022/11/24 01:52:16;;;;;;;15.95;3.80;;;10.50;96.00;;;;;;5108796;28;20067;-59
2022/11/24 01:54:47;;;;;;;13.77;3.60;;;10.50;96.10;;;;;;5109067;28;20023;-59
2022/11/24 01:57:23;;;;;;;22.85;4.30;;;10.50;96.10;;;;;;5108897;28;20035;-58
2022/11/24 01:59:50;;;;;;;16.10;4.38;;;10.50;96.10;;;;;;5091788;28;20099;-58
2022/11/24 02:02:15;;;;;;;14.05;4.38;;;10.50;96.10;;;;;;5108792;28;20061;-58
2022/11/24 02:04:41;;;;;;;18.58;3.88;;;10.50;96.10;;;;;;5108718;28;20024;-58
2022/11/24 02:07:06;;;;;;;17.38;3.95;;;10.50;96.10;;;;;;5108663;28;20142;-58
2022/11/24 02:09:55;;;;;;;14.45;4.00;;;10.50;96.10;;;;;;5108547;28;20019;-58
2022/11/24 02:12:21;;;;;;;13.98;3.63;;;10.50;96.10;;;;;;5108404;28;20080;-58
2022/11/24 02:14:47;;;;;;;14.73;3.15;;;10.40;96.10;;;;;;5108703;28;20035;-59
2022/11/24 02:17:12;;;;;;;19.65;3.63;;;10.50;96.20;;;;;;5108788;28;20031;-58
2022/11/24 02:19:55;;;;;;;10.50;3.33;;;10.40;96.10;;;;;;5108693;28;20019;-58
2022/11/24 02:22:28;;;;;;;16.33;3.70;;;10.40;96.10;;;;;;5108513;28;20043;-58
2022/11/24 02:25:16;;;;;;;18.77;3.80;;;10.40;96.10;;;;;;5109198;28;20024;-59
2022/11/24 02:27:42;;;;;;;17.40;4.07;;;10.40;96.10;;;;;;5108458;28;20032;-58
2022/11/24 02:30:08;;;;;;;10.57;3.50;;;10.40;96.10;;;;;;5108258;28;20134;-58
2022/11/24 02:32:33;;;;;;;13.60;3.83;;;10.40;96.10;;;;;;5108196;28;20059;-58
2022/11/24 02:35:03;;;;;;;13.90;3.22;;;10.40;96.10;;;;;;5108078;28;20110;-58
2022/11/24 02:37:29;;;;;;;11.23;3.63;;;10.40;96.40;;;;;;5126487;28;20372;-58
2022/11/24 02:39:54;;;;;;;14.32;3.15;;;10.40;96.10;;;;;;5107829;28;20057;-58
2022/11/24 02:42:20;;;;;;;17.15;3.50;;;10.40;96.10;;;;;;5126204;28;20032;-58
2022/11/24 02:44:48;;;;;;;10.05;2.83;;;10.40;96.10;;;;;;5107884;28;20024;-58
2022/11/24 02:47:13;;;;;;;8.90;3.40;;;10.30;96.10;;;;;;5107905;28;20110;-58
2022/11/24 02:49:39;;;;;;;12.32;3.33;;;10.40;96.20;;;;;;5126029;28;20066;-58
2022/11/24 02:52:05;;;;;;;12.55;2.95;;;10.30;96.10;;;;;;5107741;28;20091;-59
2022/11/24 02:54:30;;;;;;;9.27;2.83;;;10.30;96.10;;;;;;5107066;28;20024;-58
2022/11/24 02:56:56;;;;;;;13.98;3.85;;;10.30;96.10;;;;;;5107507;28;20390;-58
2022/11/24 02:59:21;;;;;;;9.95;3.38;;;10.30;96.20;;;;;;5091089;28;20023;-58
2022/11/24 03:01:47;;;;;;;11.77;3.13;;;10.30;96.10;;;;;;5126945;28;20024;-58
2022/11/24 03:04:12;;;;;;;9.90;3.20;;;10.30;96.10;;;;;;5108008;28;20542;-58
2022/11/24 03:06:38;;;;;;;10.50;3.53;;;10.30;96.10;;;;;;5124416;28;20058;-58
2022/11/24 03:09:04;;;;;;;10.38;3.30;;;10.30;96.00;;;;;;5107388;28;20095;-58
2022/11/24 03:11:30;;;;;;;12.20;2.85;;;10.30;96.00;;;;;;5125844;28;20108;-58
2022/11/24 03:13:55;;;;;;;12.82;3.03;;;10.30;96.00;;;;;;5107439;28;20031;-58
2022/11/24 03:16:21;;;;;;;13.88;2.80;;;10.30;96.00;;;;;;5107355;28;20055;-58
2022/11/24 03:18:47;;;;;;;8.10;2.95;;;10.30;96.00;;;;;;5107562;28;20035;-58
2022/11/24 03:21:13;;;;;;;11.55;3.67;;;10.30;96.00;;;;;;5107317;28;20046;-59
2022/11/24 03:23:38;;;;;;;9.73;3.10;;;10.30;96.00;;;;;;5107270;28;20053;-58
2022/11/24 03:26:11;;;;;;;12.05;2.92;;;10.20;96.00;;;;;;5125575;28;20032;-58
2022/11/24 03:28:37;;;;;;;11.23;3.15;;;10.30;96.00;;;;;;5107468;28;20096;-58
2022/11/24 03:31:03;;;;;;;16.73;3.60;;;10.20;96.00;;;;;;5125505;28;20073;-58
2022/11/24 03:33:29;;;;;;;9.07;2.58;;;10.20;96.00;;;;;;5125274;28;20027;-59
2022/11/24 03:35:54;;;;;;;7.97;2.85;;;10.20;96.20;;;;;;5125353;28;20028;-58
2022/11/24 03:38:20;;;;;;;10.18;3.05;;;10.20;95.90;;;;;;5107001;28;20506;-58
2022/11/24 03:40:45;;;;;;;6.97;3.13;;;10.20;95.90;;;;;;5090008;28;20087;-58
2022/11/24 03:43:11;;;;;;;8.23;3.13;;;10.20;96.00;;;;;;5125233;28;20088;-58
2022/11/24 03:45:37;;;;;;;8.85;3.17;;;10.20;96.00;;;;;;5106862;28;20047;-58
2022/11/24 03:48:02;;;;;;;6.82;2.63;;;10.20;96.00;;;;;;5106818;28;20176;-58
2022/11/24 03:50:28;;;;;;;9.80;3.08;;;10.20;96.00;;;;;;5106923;28;20047;-58
2022/11/24 03:52:53;;;;;;;5.80;2.97;;;10.20;96.10;;;;;;5106869;28;20039;-58
2022/11/24 03:55:19;;;;;;;7.13;2.63;;;10.20;96.10;;;;;;5106692;28;20119;-58
2022/11/24 03:57:44;;;;;;;11.82;3.70;;;10.20;96.10;;;;;;5107038;28;20016;-58
2022/11/24 04:00:10;;;;;;;11.07;3.03;;;10.20;96.20;;;;;;5106795;28;20115;-58
2022/11/24 04:02:37;;;;;;;8.45;2.80;;;10.20;96.20;;;;;;5089711;28;20031;-58
2022/11/24 04:05:03;;;;;;;11.95;3.58;;;10.20;96.20;;;;;;5091330;28;20028;-57
2022/11/24 04:07:28;;;;;;;6.65;3.08;;;10.20;96.20;;;;;;5110877;28;20396;-58
2022/11/24 04:09:54;;;;;;;9.18;3.15;;;10.20;96.20;;;;;;5129323;28;20031;-58
2022/11/24 04:15:04;;;;;;;5.35;2.70;;;10.20;96.30;;;;;;5113730;28;20117;-58
2022/11/24 04:17:29;;;;;;;9.52;3.40;;;10.20;96.30;;;;;;5110864;28;20036;-58
2022/11/24 04:19:55;;;;;;;9.63;3.00;;;10.20;96.30;;;;;;5110519;28;20020;-58
2022/11/24 04:22:20;;;;;;;8.45;3.65;;;10.20;96.20;;;;;;5128992;28;20082;-58
2022/11/24 04:24:46;;;;;;;6.65;2.70;;;10.20;96.20;;;;;;5110777;28;20020;-58
2022/11/24 04:27:11;;;;;;;5.57;2.05;;;10.20;96.30;;;;;;5129061;28;20036;-58
2022/11/24 04:29:37;;;;;;;8.27;2.90;;;10.20;96.20;;;;;;5128973;28;20084;-58
2022/11/24 04:32:02;;;;;;;8.35;2.65;;;10.20;96.20;;;;;;5110458;28;20368;-58
2022/11/24 04:34:28;;;;;;;5.07;2.30;;;10.20;96.10;;;;;;5110144;28;20019;-58
2022/11/24 04:36:53;;;;;;;7.38;3.17;;;10.20;96.00;;;;;;5128609;28;20040;-58
2022/11/24 04:39:19;;;;;;;11.43;2.70;;;10.20;96.00;;;;;;5110337;28;20038;-58
2022/11/24 04:41:46;;;;;;;6.22;2.42;;;10.20;96.00;;;;;;5093181;28;20028;-58
2022/11/24 04:44:11;;;;;;;6.80;2.30;;;10.10;95.90;;;;;;5110294;28;20122;-58
2022/11/24 04:46:37;;;;;;;6.60;2.40;;;10.10;95.90;;;;;;5110198;28;20107;-58
2022/11/24 04:49:03;;;;;;;6.95;2.63;;;10.10;95.90;;;;;;5128353;28;20076;-58
2022/11/24 04:51:28;;;;;;;7.32;2.53;;;10.10;95.80;;;;;;5128435;28;20035;-58
2022/11/24 04:53:54;;;;;;;7.22;2.70;;;10.10;96.10;;;;;;5128385;28;20032;-58
2022/11/24 04:56:19;;;;;;;6.03;2.30;;;10.10;95.90;;;;;;5128469;28;20135;-58
2022/11/24 04:58:47;;;;;;;8.68;2.55;;;10.10;95.90;;;;;;5128395;28;20337;-58
2022/11/24 05:01:13;;;;;;;7.88;2.75;;;10.10;95.80;;;;;;5109936;28;20027;-59
2022/11/24 05:03:39;;;;;;;6.88;2.40;;;10.00;95.80;;;;;;5128494;28;20102;-58
2022/11/24 05:06:05;;;;;;;6.25;2.42;;;10.10;95.80;;;;;;5128281;28;20447;-58
2022/11/24 05:08:30;;;;;;;12.98;2.78;;;10.00;95.80;;;;;;5109662;28;20024;-58
2022/11/24 05:10:56;;;;;;;24.52;2.90;;;10.10;95.80;;;;;;5109617;28;20040;-58
2022/11/24 05:13:22;;;;;;;14.93;3.35;;;10.00;95.70;;;;;;5109663;28;20024;-59
2022/11/24 05:15:47;;;;;;;22.33;3.17;;;10.00;95.60;;;;;;5109397;28;20357;-58
2022/11/24 05:18:15;;;;;;;22.50;3.92;;;10.00;95.70;;;;;;5127753;28;20027;-58
2022/11/24 05:20:43;;;;;;;12.77;3.50;;;10.00;95.70;;;;;;5109951;28;20035;-58
2022/11/24 05:23:08;;;;;;;13.13;2.92;;;10.00;95.70;;;;;;5110210;28;20023;-58
2022/11/24 05:25:34;;;;;;;20.38;3.85;;;10.00;95.60;;;;;;5109518;28;20035;-58
2022/11/24 05:28:01;;;;;;;13.00;2.95;;;10.00;95.60;;;;;;5109327;28;20024;-58
2022/11/24 05:30:27;;;;;;;20.27;3.60;;;10.00;95.60;;;;;;5129316;28;20044;-58
2022/11/24 05:32:52;;;;;;;18.75;3.67;;;10.00;95.60;;;;;;5129563;28;20016;-58
2022/11/24 05:35:18;;;;;;;16.67;3.20;;;10.00;95.60;;;;;;5129433;28;20045;-58
2022/11/24 05:37:43;;;;;;;15.32;3.30;;;10.00;95.60;;;;;;5092689;28;20038;-58
2022/11/24 05:40:09;;;;;;;26.15;3.92;;;10.00;95.60;;;;;;5127925;28;20020;-58
2022/11/24 05:42:41;;;;;;;11.20;3.30;;;10.00;95.60;;;;;;5108936;28;20042;-58
2022/11/24 05:45:11;;;;;;;13.57;3.13;;;10.00;95.50;;;;;;5127688;28;20077;-58
2022/11/24 05:47:37;;;;;;;21.20;3.25;;;10.00;95.40;;;;;;5109235;28;20042;-58
2022/11/24 05:50:03;;;;;;;13.02;3.00;;;10.00;95.40;;;;;;5109192;28;20023;-58
2022/11/24 05:52:28;;;;;;;15.82;2.70;;;10.10;95.40;;;;;;5109045;28;20091;-58
2022/11/24 05:54:54;;;;;;;12.80;2.83;;;10.00;95.30;;;;;;5108878;28;20049;-58
2022/11/24 05:57:19;;;;;;;10.98;2.55;;;10.00;95.30;;;;;;5108735;28;20024;-58
2022/11/24 05:59:45;;;;;;;20.02;2.97;;;10.00;95.30;;;;;;5127251;28;20156;-58
2022/11/24 06:02:10;;;;;;;15.27;3.08;;;10.10;95.30;;;;;;5127159;28;20076;-58
2022/11/24 06:04:36;;;;;;;12.93;2.85;;;10.10;95.30;;;;;;5108627;28;20024;-58
2022/11/24 06:07:02;;;;;;;14.85;2.42;;;10.00;95.30;;;;;;5091643;28;20074;-58
2022/11/24 06:09:28;;;;;;;12.90;2.30;;;10.00;95.30;;;;;;5126804;28;20127;-58
2022/11/24 06:11:54;;;;;;;17.77;2.85;;;10.10;95.30;;;;;;5108475;28;20172;-58
2022/11/24 06:14:19;;;;;;;11.40;2.33;;;10.10;95.30;;;;;;5126798;28;20054;-58
2022/11/24 06:16:45;;;;;;;11.13;2.42;;;10.00;95.30;;;;;;5108180;28;20038;-58
2022/11/24 06:19:10;;;;;;;12.10;2.47;;;10.10;95.30;;;;;;5126737;28;20024;-58
2022/11/24 06:21:36;;;;;;;11.75;2.30;;;10.10;95.30;;;;;;5108165;28;20039;-58
2022/11/24 06:24:01;;;;;;;16.23;2.67;;;10.00;95.30;;;;;;5108346;28;20046;-58
2022/11/24 06:26:27;;;;;;;10.75;2.60;;;10.00;95.30;;;;;;5126278;28;20506;-58
2022/11/24 06:28:53;;;;;;;7.45;2.20;;;10.00;95.30;;;;;;5126531;28;20026;-58
2022/11/24 06:31:18;;;;;;;6.05;2.25;;;10.00;95.30;;;;;;5108045;28;20437;-58
2022/11/24 06:33:44;;;;;;;9.00;2.38;;;10.00;95.30;;;;;;5126490;28;20437;-58
2022/11/24 06:36:11;;;;;;;11.32;2.20;;;10.00;95.30;;;;;;5107923;28;20031;-59
2022/11/24 06:38:36;;;;;;;15.80;3.00;;;10.10;95.30;;;;;;5108264;28;20020;-58
2022/11/24 06:41:05;;;;;;;13.32;2.45;;;10.10;95.30;;;;;;5107827;28;20526;-58
2022/11/24 06:43:30;;;;;;;9.80;2.15;;;10.10;95.40;;;;;;5108181;28;20447;-58
2022/11/24 06:45:56;;;;;;;6.35;2.13;;;10.10;95.40;;;;;;5126203;28;20035;-58
2022/11/24 06:48:22;;;;;;;7.50;2.72;;;10.10;95.40;;;;;;5107921;28;20053;-58
2022/11/24 06:50:48;;;;;;;11.63;2.20;;;10.00;95.40;;;;;;5107610;28;20047;-58
2022/11/24 06:53:14;;;;;;;11.63;2.33;;;10.10;95.40;;;;;;5107686;28;20051;-58
2022/11/24 06:55:39;;;;;;;9.43;2.40;;;10.00;95.40;;;;;;5124479;28;20110;-58
2022/11/24 06:58:05;;;;;;;8.65;2.15;;;10.00;95.40;;;;;;5107627;28;20049;-59
2022/11/24 07:00:33;;;;;;;8.40;2.00;;;10.10;95.40;;;;;;5107760;28;20079;-58
2022/11/24 07:02:59;;;;;;;11.55;2.60;;;10.00;95.40;;;;;;5126057;28;20035;-58
2022/11/24 07:05:25;;;;;;;9.40;2.15;;;10.10;95.40;;;;;;5125889;28;20091;-58
2022/11/24 07:07:50;;;;;;;11.23;1.90;;;10.00;95.40;;;;;;5107903;28;20134;-58
2022/11/24 07:10:16;;;;;;;10.02;2.30;;;10.00;95.40;;;;;;5107618;28;20468;-58
2022/11/24 07:12:41;;;;;;;8.05;2.38;;;10.00;95.30;;;;;;5107369;28;20081;-58
2022/11/24 07:15:08;;;;;;;8.70;2.25;;;10.00;95.30;;;;;;5107396;28;20080;-58
2022/11/24 07:17:39;;;;;;;10.02;2.63;;;10.00;95.30;;;;;;5104455;28;20065;-58
2022/11/24 07:20:06;;;;;;;9.10;2.28;;;10.10;95.40;;;;;;5089111;28;20027;-58
2022/11/24 07:22:32;;;;;;;10.93;2.40;;;10.00;95.40;;;;;;5089944;28;20103;-58
2022/11/24 07:24:57;;;;;;;7.75;2.22;;;10.00;95.30;;;;;;5089560;28;20469;-59
2022/11/24 07:27:23;;;;;;;7.78;2.33;;;10.00;95.20;;;;;;5106461;28;20088;-58
2022/11/24 07:29:48;;;;;;;12.57;2.60;;;10.10;95.20;;;;;;5124401;28;20023;-59
2022/11/24 07:32:14;;;;;;;15.63;3.42;;;10.10;95.30;;;;;;5106887;28;20406;-59
2022/11/24 07:34:40;;;;;;;33.60;4.38;;;10.10;95.20;;;;;;5125262;28;20034;-59
2022/11/24 07:37:05;;;;;;;17.10;3.95;;;10.10;95.30;;;;;;5106751;28;20077;-59
2022/11/24 07:39:31;;;;;;;29.13;4.80;;;10.10;95.40;;;;;;5106588;28;20447;-59
2022/11/24 07:41:58;;;;;;;33.53;5.05;;;10.10;95.40;;;;;;5125126;28;20056;-58
2022/11/24 07:44:24;;;;;;;46.85;6.43;;;10.10;95.30;;;;;;5090375;28;20115;-59
2022/11/24 07:46:50;;;;;;;29.00;5.43;;;10.10;95.30;;;;;;5106720;28;20032;-59
2022/11/24 07:49:16;;;;;;;31.40;5.85;;;10.10;95.30;;;;;;5106877;28;20016;-58
2022/11/24 07:51:41;;;;;;;33.65;5.95;;;10.10;95.20;;;;;;5106691;28;20062;-58
2022/11/24 07:54:07;;;;;;;26.80;5.00;;;10.10;95.50;;;;;;5106988;28;20032;-58
2022/11/24 07:56:33;;;;;;;19.00;4.05;;;10.10;95.10;;;;;;5106912;28;20027;-58
2022/11/24 07:58:59;;;;;;;23.25;3.95;;;10.10;95.10;;;;;;5125324;28;20023;-59
2022/11/24 08:01:24;;;;;;;19.75;3.70;;;10.10;95.00;;;;;;5106789;28;20034;-58
2022/11/24 08:03:50;;;;;;;14.43;3.30;;;10.10;95.00;;;;;;5106728;28;20537;-59
2022/11/24 08:06:16;;;;;;;23.58;4.25;;;10.10;95.00;;;;;;5106591;28;20051;-59
2022/11/24 08:08:41;;;;;;;29.67;3.40;;;10.10;95.00;;;;;;5106855;28;20039;-59
2022/11/24 08:11:11;;;;;;;17.60;4.05;;;10.20;95.10;;;;;;5125134;28;20032;-58
2022/11/24 08:13:37;;;;;;;24.83;4.22;;;10.10;95.10;;;;;;5106504;28;20023;-59
2022/11/24 08:16:04;;;;;;;14.00;2.85;;;10.10;95.10;;;;;;5106344;28;20046;-59
2022/11/24 08:18:29;;;;;;;20.55;3.42;;;10.10;95.10;;;;;;5090039;28;20027;-58
2022/11/24 08:20:57;;;;;;;15.10;3.10;;;10.10;95.20;;;;;;5106621;28;20043;-59
2022/11/24 08:23:23;;;;;;;12.73;2.90;;;10.10;95.20;;;;;;5106709;28;20036;-59
2022/11/24 08:25:48;;;;;;;11.63;2.80;;;10.10;95.30;;;;;;5124731;28;20127;-59
2022/11/24 08:28:14;;;;;;;15.30;3.08;;;10.10;95.70;;;;;;5124896;28;20047;-59
2022/11/24 08:30:39;;;;;;;17.85;3.05;;;10.10;95.50;;;;;;5105958;28;20039;-59
2022/11/24 08:33:05;;;;;;;29.27;4.40;;;10.10;95.60;;;;;;5097574;28;20024;-59
2022/11/24 08:35:30;;;;;;;56.90;6.15;;;10.10;95.60;;;;;;5122230;28;20012;-59
2022/11/24 08:37:56;;;;;;;30.73;4.65;;;10.20;95.70;;;;;;5088634;28;20020;-59
2022/11/24 08:40:21;;;;;;;118.05;10.65;;;10.20;95.80;;;;;;5106050;28;20123;-59
2022/11/24 08:42:47;;;;;;;40.88;5.68;;;10.20;95.90;;;;;;5124191;28;20032;-59
2022/11/24 08:45:13;;;;;;;30.73;5.43;;;10.20;96.00;;;;;;5106193;28;20106;-60
2022/11/24 08:47:38;;;;;;;32.22;5.13;;;10.20;96.10;;;;;;5106470;28;20032;-55
2022/11/24 08:50:04;;;;;;;35.30;5.93;;;10.20;96.20;;;;;;5124664;28;20100;-55
2022/11/24 08:52:30;;;;;;;31.98;4.50;;;10.20;96.20;;;;;;5126340;28;20020;-55
2022/11/24 08:54:56;;;;;;;36.03;4.78;;;10.20;96.20;;;;;;5109886;28;20046;-55
2022/11/24 08:57:23;;;;;;;63.33;5.70;;;10.20;96.20;;;;;;5108507;28;20103;-55
2022/11/24 08:59:49;;;;;;;42.90;5.60;;;10.20;96.30;;;;;;5093385;28;20024;-55
2022/11/24 09:02:14;;;;;;;40.95;5.35;;;10.20;96.40;;;;;;5128181;28;20050;-55
2022/11/24 09:04:40;;;;;;;36.35;5.70;;;10.20;96.40;;;;;;5128095;28;20019;-56
2022/11/24 09:07:06;;;;;;;44.78;5.50;;;10.30;96.50;;;;;;5114750;28;20028;-55
2022/11/24 09:09:31;;;;;;;59.38;8.25;;;10.20;96.60;;;;;;5109711;28;20031;-55
2022/11/24 09:11:57;;;;;;;51.00;7.18;;;10.20;96.70;;;;;;5127681;28;20032;-55
2022/11/24 09:14:22;;;;;;;72.13;7.70;;;10.20;96.80;;;;;;5120413;28;20437;-56
2022/11/24 09:16:48;;;;;;;69.95;8.25;;;10.20;96.90;;;;;;5109794;28;20024;-55
2022/11/24 09:19:14;;;;;;;39.55;6.57;;;10.20;96.90;;;;;;5111830;28;20437;-55
2022/11/24 09:21:39;;;;;;;54.08;8.73;;;10.20;96.90;;;;;;5118127;28;20104;-55
2022/11/24 09:24:06;;;;;;;87.28;9.73;;;10.20;96.90;;;;;;5117896;28;20027;-55
2022/11/24 09:26:33;;;;;;;46.78;6.78;;;10.20;97.00;;;;;;5108818;28;20019;-55
2022/11/24 09:28:59;;;;;;;51.92;7.55;;;10.20;96.90;;;;;;5081428;28;20035;-55
2022/11/24 09:31:27;;;;;;;71.38;8.40;;;10.30;96.90;;;;;;5108615;28;20368;-55
2022/11/24 09:33:52;;;;;;;78.90;10.07;;;10.30;96.90;;;;;;5089886;28;20125;-55
2022/11/24 09:36:18;;;;;;;75.25;9.40;;;10.30;97.30;;;;;;5125894;28;20035;-55
2022/11/24 09:38:44;;;;;;;71.53;8.70;;;10.30;97.10;;;;;;5125622;28;20035;-55
2022/11/24 09:41:21;;;;;;;72.80;7.97;;;10.40;97.20;;;;;;5108113;28;20031;-55
2022/11/24 09:43:58;;;;;;;94.68;10.43;;;10.40;97.20;;;;;;5107847;28;20032;-55
2022/11/24 09:46:32;;;;;;;47.97;8.15;;;10.40;97.20;;;;;;5108587;28;20027;-55
2022/11/24 09:48:57;;;;;;;60.53;8.18;;;10.40;97.10;;;;;;5108470;28;20119;-55
2022/11/24 09:51:28;;;;;;;49.10;7.32;;;10.40;96.90;;;;;;5108241;28;20027;-55
2022/11/24 09:53:59;;;;;;;65.03;8.32;;;10.50;96.90;;;;;;5092326;28;20042;-55
2022/11/24 09:56:30;;;;;;;92.25;10.57;;;10.50;96.90;;;;;;5108257;28;20038;-55
2022/11/24 09:59:06;;;;;;;94.53;12.55;;;10.50;97.00;;;;;;5106621;28;20083;-56
2022/11/24 10:01:35;;;;;;;96.65;12.00;;;10.50;97.20;;;;;;5076491;28;20038;-55
2022/11/24 10:04:02;;;;;;;93.97;12.82;;;10.60;97.30;;;;;;5105291;28;20037;-55
2022/11/24 10:06:31;;;;;;;88.47;11.30;;;10.60;97.20;;;;;;5071448;28;20127;-55
2022/11/24 10:09:34;;;;;;;89.97;12.60;;;10.60;97.30;;;;;;5101040;28;20045;-56
2022/11/24 10:12:47;;;;;;;169.90;17.00;;;10.60;97.30;;;;;;5126265;28;20074;-55
2022/11/24 10:15:13;;;;;;;135.65;15.75;;;10.60;97.30;;;;;;5050807;28;20034;-59
2022/11/24 10:18:01;;;;;;;139.13;15.95;;;10.60;97.30;;;;;;5121943;28;20031;-59
2022/11/24 10:20:27;;;;;;;103.47;14.82;;;10.60;97.20;;;;;;5091620;28;20023;-59
2022/11/24 10:23:14;;;;;;;143.45;18.70;;;10.60;97.10;;;;;;5107369;28;20028;-59
2022/11/24 10:25:45;;;;;;;127.47;14.80;;;10.70;97.00;;;;;;5126023;28;20467;-59
2022/11/24 10:28:12;;;;;;;123.45;16.10;;;10.70;97.30;;;;;;5110999;28;20107;-59
2022/11/24 10:30:38;;;;;;;124.57;15.15;;;10.70;96.90;;;;;;5085327;28;20031;-59
2022/11/24 10:33:23;;;;;;;126.85;16.08;;;10.70;96.90;;;;;;5099383;28;20046;-59
2022/11/24 10:35:49;;;;;;;109.05;14.18;;;10.70;97.00;;;;;;5071029;28;20206;-59
2022/11/24 10:38:20;;;;;;;89.35;13.15;;;10.80;97.10;;;;;;5113393;28;20158;-59
2022/11/24 10:40:47;;;;;;;89.60;14.00;;;10.80;97.00;;;;;;5091916;28;20024;-59
2022/11/24 10:43:13;;;;;;;109.88;14.50;;;10.80;96.90;;;;;;5097129;28;20039;-59
2022/11/24 10:45:39;;;;;;;81.55;11.93;;;10.80;96.70;;;;;;5116471;28;20031;-59
2022/11/24 10:48:14;;;;;;;88.80;11.95;;;10.90;96.70;;;;;;5103000;27;20144;-58
2022/11/24 10:50:40;;;;;;;111.63;12.05;;;10.90;96.70;;;;;;5111868;27;20031;-59
2022/11/24 10:53:09;;;;;;;109.90;14.27;;;10.80;96.70;;;;;;5111067;27;20020;-58
2022/11/24 10:55:53;;;;;;;78.85;12.18;;;10.90;96.80;;;;;;5143239;27;20039;-59
2022/11/24 10:58:21;;;;;;;87.57;11.70;;;10.90;96.80;;;;;;5117963;27;20023;-59
2022/11/24 11:00:46;;;;;;;88.95;12.18;;;10.90;97.00;;;;;;5080074;28;20418;-59
2022/11/24 11:03:16;;;;;;;117.40;13.95;;;11.00;96.90;;;;;;5097853;28;20119;-59
2022/11/24 11:05:43;;;;;;;115.68;13.90;;;11.00;96.80;;;;;;5106764;28;20040;-59
2022/11/24 11:08:09;;;;;;;96.93;13.93;;;11.00;96.70;;;;;;5106640;28;20368;-59
2022/11/24 11:10:35;;;;;;;105.47;11.80;;;11.00;96.60;;;;;;5124687;28;20032;-59
2022/11/24 11:13:19;;;;;;;112.05;11.30;;;11.10;96.60;;;;;;5106017;28;20023;-59
2022/11/24 11:15:45;;;;;;;75.22;11.18;;;11.10;96.40;;;;;;5105702;28;20055;-59
2022/11/24 11:18:13;;;;;;;87.30;9.98;;;11.10;96.20;;;;;;5089468;28;20031;-59
2022/11/24 11:20:38;;;;;;;73.45;10.65;;;11.20;96.20;;;;;;5070838;28;20053;-59
2022/11/24 11:23:13;;;;;;;104.90;12.27;;;11.10;96.20;;;;;;5124623;28;20035;-59
2022/11/24 11:25:40;;;;;;;83.68;11.13;;;11.10;96.30;;;;;;5088707;28;20047;-59
2022/11/24 11:28:27;;;;;;;114.10;12.82;;;11.10;96.30;;;;;;5087458;28;20054;-59
2022/11/24 11:31:04;;;;;;;83.80;10.50;;;11.20;96.30;;;;;;5121890;28;20051;-59
2022/11/24 11:33:30;;;;;;;92.18;11.80;;;11.20;96.40;;;;;;5106274;28;20125;-59
2022/11/24 11:35:56;;;;;;;130.82;14.32;;;11.20;96.40;;;;;;5105390;28;20062;-59
2022/11/24 11:38:31;;;;;;;107.22;12.75;;;11.20;96.50;;;;;;5084102;28;20421;-59
2022/11/24 11:40:56;;;;;;;97.13;14.13;;;11.20;96.60;;;;;;5105748;28;20162;-59
2022/11/24 11:43:27;;;;;;;117.38;14.32;;;11.30;96.70;;;;;;5104887;28;20151;-59
2022/11/24 11:46:08;;;;;;;109.55;12.32;;;11.30;96.80;;;;;;5106668;28;20059;-59
2022/11/24 11:48:35;;;;;;;105.97;13.43;;;11.30;96.70;;;;;;5105503;28;20031;-59
2022/11/24 11:51:41;;;;;;;117.95;14.20;;;11.30;96.70;;;;;;5089515;28;20035;-59
2022/11/24 11:54:29;;;;;;;138.40;15.93;;;11.40;96.90;;;;;;5105746;28;20070;-59
2022/11/24 11:57:17;;;;;;;90.18;11.02;;;11.40;97.00;;;;;;5091301;28;20077;-59
2022/11/24 11:59:51;;;;;;;114.43;13.82;;;11.40;97.00;;;;;;5105473;28;20040;-59
2022/11/24 12:02:32;;;;;;;90.20;11.23;;;11.40;97.00;;;;;;5105944;28;20055;-59
2022/11/24 12:05:16;;;;;;;140.77;16.02;;;11.50;96.90;;;;;;5105888;28;20077;-59
2022/11/24 12:07:47;;;;;;;114.25;14.95;;;11.50;97.00;;;;;;5124692;28;20138;-58
2022/11/24 12:10:30;;;;;;;109.68;13.63;;;11.50;97.00;;;;;;5106421;28;20023;-59
2022/11/24 12:13:05;;;;;;;110.80;15.32;;;11.50;96.90;;;;;;5106532;28;20061;-59
2022/11/24 12:15:58;;;;;;;93.20;13.60;;;11.60;96.90;;;;;;5106549;28;20073;-59
2022/11/24 12:18:23;;;;;;;79.10;12.27;;;11.60;96.90;;;;;;5091591;28;20032;-59
2022/11/24 12:21:11;;;;;;;86.43;12.85;;;11.60;96.80;;;;;;5105219;28;20504;-59
2022/11/24 12:24:09;;;;;;;92.78;12.77;;;11.60;96.60;;;;;;5105806;28;20028;-59
2022/11/24 12:26:53;;;;;;;110.72;13.43;;;11.60;96.50;;;;;;5108323;28;20056;-59
2022/11/24 12:29:41;;;;;;;92.65;11.20;;;11.60;96.30;;;;;;5111149;28;20038;-59
2022/11/24 12:32:06;;;;;;;69.30;11.23;;;11.60;96.20;;;;;;5129003;28;20070;-59
2022/11/24 12:34:34;;;;;;;74.55;10.45;;;11.60;96.20;;;;;;5128744;28;20016;-59
2022/11/24 12:37:19;;;;;;;101.43;10.13;;;11.70;96.10;;;;;;5093081;28;20177;-59
2022/11/24 12:40:18;;;;;;;84.07;11.45;;;11.70;96.00;;;;;;5111655;28;20043;-59
2022/11/24 12:42:58;;;;;;;92.20;10.82;;;11.70;95.80;;;;;;5105106;28;20070;-59
2022/11/24 12:45:42;;;;;;;73.13;9.75;;;11.70;95.70;;;;;;5092935;28;20098;-58